createdAt,value
2018-08-16T00:00:56.244Z,1019.12
2018-08-16T00:01:56.024Z,1019.12
2018-08-16T00:02:56.542Z,1019.10
2018-08-16T00:03:55.954Z,1019.10
2018-08-16T00:04:56.698Z,1019.08
2018-08-16T00:05:56.306Z,1019.10
2018-08-16T00:06:55.775Z,1019.10
2018-08-16T00:07:56.662Z,1019.11
2018-08-16T00:08:56.123Z,1019.13
2018-08-16T00:09:55.512Z,1019.10
2018-08-16T00:11:17.644Z,1019.14
2018-08-16T00:12:18.524Z,1019.15
2018-08-16T00:13:18.503Z,1019.14
2018-08-16T00:14:18.632Z,1019.13
2018-08-16T00:15:18.454Z,1019.12
2018-08-16T00:16:18.136Z,1019.11
2018-08-16T00:17:40.231Z,1019.10
2018-08-16T00:18:39.908Z,1019.08
2018-08-16T00:19:39.541Z,1019.09
2018-08-16T00:21:01.888Z,1019.08
2018-08-16T00:22:02.679Z,1019.06
2018-08-16T00:23:02.703Z,1019.06
2018-08-16T00:24:02.194Z,1019.05
2018-08-16T00:25:01.760Z,1019.03
2018-08-16T00:26:02.295Z,1019.02
2018-08-16T00:27:01.771Z,1019.04
2018-08-16T00:28:02.332Z,1019.03
2018-08-16T00:29:01.845Z,1019.02
2018-08-16T00:30:01.861Z,1019.00
2018-08-16T00:31:02.597Z,1019.01
2018-08-16T00:32:02.047Z,1019.01
2018-08-16T00:33:01.543Z,1018.98
2018-08-16T00:34:02.208Z,1018.97
2018-08-16T00:35:01.549Z,1019.03
2018-08-16T00:36:01.944Z,1018.99
2018-08-16T00:37:01.555Z,1018.98
2018-08-16T00:38:01.969Z,1019.00
2018-08-16T00:39:01.554Z,1019.01
2018-08-16T00:40:02.146Z,1019.00
2018-08-16T00:41:01.554Z,1019.03
2018-08-16T00:42:23.741Z,1018.99
2018-08-16T00:43:45.895Z,1018.96
2018-08-16T00:44:46.361Z,1018.98
2018-08-16T00:45:46.115Z,1018.95
2018-08-16T00:46:46.778Z,1018.97
2018-08-16T00:48:08.165Z,1018.98
2018-08-16T00:49:08.985Z,1019.01
2018-08-16T00:50:08.474Z,1018.97
2018-08-16T00:51:08.348Z,1018.98
2018-08-16T00:52:08.065Z,1018.96
2018-08-16T00:53:31.967Z,1018.95
2018-08-16T00:54:31.716Z,1018.92
2018-08-16T00:55:53.169Z,1018.97
2018-08-16T00:56:53.075Z,1018.95
2018-08-16T00:57:53.708Z,1018.94
2018-08-16T00:59:14.477Z,1018.93
2018-08-16T01:00:36.187Z,1018.96
2018-08-16T01:01:36.861Z,1018.96
2018-08-16T01:02:36.637Z,1018.92
2018-08-16T01:03:36.772Z,1018.92
2018-08-16T01:04:36.744Z,1018.93
2018-08-16T01:06:41.613Z,1018.91
2018-08-16T01:07:42.698Z,1018.88
2018-08-16T01:08:42.135Z,1018.90
2018-08-16T01:09:41.776Z,1018.90
2018-08-16T01:10:42.475Z,1018.84
2018-08-16T01:11:42.349Z,1018.89
2018-08-16T01:12:42.193Z,1018.81
2018-08-16T01:13:41.823Z,1018.82
2018-08-16T01:14:42.595Z,1018.79
2018-08-16T01:15:42.531Z,1018.82
2018-08-16T01:17:03.953Z,1018.83
2018-08-16T01:18:04.713Z,1018.81
2018-08-16T01:19:04.672Z,1018.79
2018-08-16T01:20:04.408Z,1018.81
2018-08-16T01:21:03.851Z,1018.82
2018-08-16T01:22:04.536Z,1018.82
2018-08-16T01:23:04.530Z,1018.83
2018-08-16T01:24:04.103Z,1018.81
2018-08-16T01:25:03.726Z,1018.81
2018-08-16T01:26:04.619Z,1018.82
2018-08-16T01:27:04.724Z,1018.84
2018-08-16T01:28:04.378Z,1018.83
2018-08-16T01:29:04.020Z,1018.85
2018-08-16T01:30:04.388Z,1018.82
2018-08-16T01:31:03.840Z,1018.85
2018-08-16T01:32:04.763Z,1018.83
2018-08-16T01:33:04.442Z,1018.86
2018-08-16T01:34:04.065Z,1018.82
2018-08-16T01:35:03.577Z,1018.82
2018-08-16T01:36:04.089Z,1018.82
2018-08-16T01:37:03.952Z,1018.83
2018-08-16T01:38:03.560Z,1018.85
2018-08-16T01:39:04.259Z,1018.83
2018-08-16T01:40:04.047Z,1018.79
2018-08-16T01:41:03.677Z,1018.80
2018-08-16T01:42:04.647Z,1018.83
2018-08-16T01:43:04.936Z,1018.83
2018-08-16T01:44:03.960Z,1018.83
2018-08-16T01:45:04.552Z,1018.80
2018-08-16T01:46:04.215Z,1018.79
2018-08-16T01:47:03.854Z,1018.82
2018-08-16T01:48:04.403Z,1018.80
2018-08-16T01:49:03.805Z,1018.81
2018-08-16T01:50:04.196Z,1018.84
2018-08-16T01:51:03.576Z,1018.84
2018-08-16T01:52:04.248Z,1018.80
2018-08-16T01:53:03.891Z,1018.81
2018-08-16T01:54:03.780Z,1018.82
2018-08-16T01:55:04.498Z,1018.81
2018-08-16T01:56:04.215Z,1018.81
2018-08-16T01:57:03.868Z,1018.79
2018-08-16T01:58:03.837Z,1018.76
2018-08-16T01:59:04.305Z,1018.75
2018-08-16T02:00:03.918Z,1018.80
2018-08-16T02:01:04.445Z,1018.77
2018-08-16T02:02:04.032Z,1018.76
2018-08-16T02:03:24.575Z,1018.78
2018-08-16T02:04:25.493Z,1018.75
2018-08-16T02:05:46.656Z,1018.72
2018-08-16T02:06:47.450Z,1018.71
2018-08-16T02:08:08.139Z,1018.67
2018-08-16T02:09:08.720Z,1018.63
2018-08-16T02:10:08.313Z,1018.63
2018-08-16T02:11:08.788Z,1018.64
2018-08-16T02:12:08.830Z,1018.60
2018-08-16T02:13:08.745Z,1018.63
2018-08-16T02:14:08.839Z,1018.63
2018-08-16T02:15:08.525Z,1018.63
2018-08-16T02:16:08.952Z,1018.59
2018-08-16T02:17:08.625Z,1018.58
2018-08-16T02:18:08.354Z,1018.57
2018-08-16T02:19:29.892Z,1018.59
2018-08-16T02:20:30.680Z,1018.57
2018-08-16T02:21:30.338Z,1018.57
2018-08-16T02:22:31.075Z,1018.58
2018-08-16T02:24:14.238Z,1018.55
2018-08-16T02:25:15.016Z,1018.52
2018-08-16T02:26:14.717Z,1018.50
2018-08-16T02:27:35.914Z,1018.53
2018-08-16T02:28:36.683Z,1018.50
2018-08-16T02:29:36.091Z,1018.47
2018-08-16T02:30:36.518Z,1018.51
2018-08-16T02:31:36.180Z,1018.51
2018-08-16T02:32:36.949Z,1018.51
2018-08-16T02:33:36.569Z,1018.51
2018-08-16T02:34:57.386Z,1018.49
2018-08-16T02:36:19.210Z,1018.52
2018-08-16T02:37:19.983Z,1018.51
2018-08-16T02:38:20.421Z,1018.53
2018-08-16T02:39:20.138Z,1018.52
2018-08-16T02:40:19.386Z,1018.47
2018-08-16T02:41:41.432Z,1018.54
2018-08-16T02:42:41.941Z,1018.49
2018-08-16T02:44:03.357Z,1018.46
2018-08-16T02:45:04.087Z,1018.46
2018-08-16T02:46:03.467Z,1018.43
2018-08-16T02:47:04.048Z,1018.44
2018-08-16T02:48:03.581Z,1018.39
2018-08-16T02:49:03.457Z,1018.42
2018-08-16T02:50:03.916Z,1018.39
2018-08-16T02:51:25.218Z,1018.39
2018-08-16T02:52:25.651Z,1018.41
2018-08-16T02:53:26.568Z,1018.48
2018-08-16T02:54:47.336Z,1018.42
2018-08-16T02:55:48.181Z,1018.47
2018-08-16T02:57:09.678Z,1018.45
2018-08-16T02:58:10.497Z,1018.44
2018-08-16T02:59:52.939Z,1018.44
2018-08-16T03:01:10.935Z,1018.40
2018-08-16T03:02:21.439Z,1018.41
2018-08-16T03:03:18.334Z,1018.41
2018-08-16T03:04:18.208Z,1018.39
2018-08-16T03:05:17.699Z,1018.41
2018-08-16T03:06:18.423Z,1018.44
2018-08-16T03:07:17.878Z,1018.42
2018-08-16T03:08:17.445Z,1018.42
2018-08-16T03:09:18.094Z,1018.39
2018-08-16T03:10:17.774Z,1018.41
2018-08-16T03:11:17.197Z,1018.38
2018-08-16T03:12:17.661Z,1018.40
2018-08-16T03:13:17.441Z,1018.42
2018-08-16T03:14:17.821Z,1018.35
2018-08-16T03:15:17.285Z,1018.37
2018-08-16T03:16:17.689Z,1018.36
2018-08-16T03:17:18.150Z,1018.34
2018-08-16T03:18:17.957Z,1018.31
2018-08-16T03:19:17.631Z,1018.31
2018-08-16T03:20:18.047Z,1018.29
2018-08-16T03:21:17.709Z,1018.28
2018-08-16T03:22:18.183Z,1018.25
2018-08-16T03:23:17.678Z,1018.25
2018-08-16T03:24:18.203Z,1018.26
2018-08-16T03:25:18.073Z,1018.26
2018-08-16T03:26:17.575Z,1018.28
2018-08-16T03:27:39.278Z,1018.28
2018-08-16T03:28:39.861Z,1018.25
2018-08-16T03:29:39.465Z,1018.24
2018-08-16T03:31:01.443Z,1018.26
2018-08-16T03:32:23.070Z,1018.27
2018-08-16T03:33:23.513Z,1018.25
2018-08-16T03:34:45.219Z,1018.21
2018-08-16T03:35:45.733Z,1018.22
2018-08-16T03:36:46.239Z,1018.20
2018-08-16T03:37:45.901Z,1018.22
2018-08-16T03:38:45.491Z,1018.20
2018-08-16T03:39:45.991Z,1018.21
2018-08-16T03:40:45.409Z,1018.19
2018-08-16T03:41:45.827Z,1018.22
2018-08-16T03:42:46.175Z,1018.21
2018-08-16T03:43:45.693Z,1018.18
2018-08-16T03:44:46.007Z,1018.18
2018-08-16T03:45:45.910Z,1018.19
2018-08-16T03:46:46.432Z,1018.17
2018-08-16T03:47:46.346Z,1018.16
2018-08-16T03:48:45.963Z,1018.20
2018-08-16T03:49:45.807Z,1018.19
2018-08-16T03:50:45.261Z,1018.21
2018-08-16T03:51:46.288Z,1018.19
2018-08-16T03:52:45.868Z,1018.21
2018-08-16T03:53:45.324Z,1018.22
2018-08-16T03:54:45.841Z,1018.20
2018-08-16T03:55:45.383Z,1018.19
2018-08-16T03:57:07.119Z,1018.19
2018-08-16T03:58:07.676Z,1018.18
2018-08-16T03:59:07.255Z,1018.16
2018-08-16T04:00:07.740Z,1018.16
2018-08-16T04:01:07.131Z,1018.16
2018-08-16T04:02:07.560Z,1018.12
2018-08-16T04:03:07.357Z,1018.12
2018-08-16T04:04:07.920Z,1018.14
2018-08-16T04:05:07.417Z,1018.18
2018-08-16T04:06:08.234Z,1018.15
2018-08-16T04:07:07.881Z,1018.13
2018-08-16T04:08:50.343Z,1018.13
2018-08-16T04:10:12.255Z,1018.13
2018-08-16T04:11:12.592Z,1018.12
2018-08-16T04:12:34.375Z,1018.15
2018-08-16T04:13:35.384Z,1018.18
2018-08-16T04:14:35.288Z,1018.16
2018-08-16T04:15:34.726Z,1018.17
2018-08-16T04:16:56.513Z,1018.18
2018-08-16T04:17:57.537Z,1018.19
2018-08-16T04:18:56.946Z,1018.21
2018-08-16T04:19:57.033Z,1018.17
2018-08-16T04:20:56.772Z,1018.14
2018-08-16T04:21:57.281Z,1018.16
2018-08-16T04:22:57.048Z,1018.12
2018-08-16T04:23:56.953Z,1018.14
2018-08-16T04:24:56.893Z,1018.14
2018-08-16T04:25:57.649Z,1018.14
2018-08-16T04:26:57.531Z,1018.14
2018-08-16T04:27:57.356Z,1018.14
2018-08-16T04:28:57.084Z,1018.10
2018-08-16T04:29:56.878Z,1018.12
2018-08-16T04:30:56.830Z,1018.08
2018-08-16T04:31:58.227Z,1018.12
2018-08-16T04:32:56.793Z,1018.07
2018-08-16T04:33:57.703Z,1018.07
2018-08-16T04:34:57.582Z,1018.10
2018-08-16T04:35:57.477Z,1018.09
2018-08-16T04:36:57.270Z,1018.12
2018-08-16T04:37:56.919Z,1018.10
2018-08-16T04:38:57.666Z,1018.11
2018-08-16T04:40:19.324Z,1018.10
2018-08-16T04:41:23.440Z,1018.10
2018-08-16T04:42:18.936Z,1018.12
2018-08-16T04:43:19.694Z,1018.08
2018-08-16T04:44:19.250Z,1018.08
2018-08-16T04:45:40.922Z,1018.07
2018-08-16T04:46:44.497Z,1018.06
2018-08-16T04:48:03.116Z,1018.06
2018-08-16T04:49:03.058Z,1018.02
2018-08-16T04:50:03.030Z,1018.03
2018-08-16T04:51:03.009Z,1018.04
2018-08-16T04:52:02.840Z,1018.03
2018-08-16T04:53:03.033Z,1018.04
2018-08-16T04:54:25.897Z,1018.06
2018-08-16T04:55:27.019Z,1018.02
2018-08-16T04:56:25.531Z,1018.04
2018-08-16T04:57:25.503Z,1018.04
2018-08-16T04:58:25.658Z,1018.06
2018-08-16T05:00:14.646Z,1018.01
2018-08-16T05:01:15.861Z,1018.03
2018-08-16T05:02:15.079Z,1018.02
2018-08-16T05:03:16.448Z,1018.04
2018-08-16T05:04:15.102Z,1018.00
2018-08-16T05:05:14.920Z,1018.00
2018-08-16T05:06:14.700Z,1018.00
2018-08-16T05:07:15.511Z,1018.02
2018-08-16T05:08:15.405Z,1017.99
2018-08-16T05:09:15.234Z,1018.00
2018-08-16T05:10:15.154Z,1017.99
2018-08-16T05:11:16.548Z,1017.98
2018-08-16T05:12:15.050Z,1018.01
2018-08-16T05:13:14.958Z,1017.97
2018-08-16T05:14:14.802Z,1017.97
2018-08-16T05:15:36.323Z,1018.01
2018-08-16T05:16:36.977Z,1018.02
2018-08-16T05:17:58.393Z,1018.03
2018-08-16T05:18:57.965Z,1018.02
2018-08-16T05:19:58.676Z,1018.06
2018-08-16T05:20:58.296Z,1018.05
2018-08-16T05:21:58.933Z,1018.03
2018-08-16T05:22:58.621Z,1018.09
2018-08-16T05:23:58.470Z,1018.09
2018-08-16T05:24:58.151Z,1018.03
2018-08-16T05:25:58.626Z,1018.07
2018-08-16T05:26:58.563Z,1018.07
2018-08-16T05:27:58.282Z,1018.07
2018-08-16T05:28:58.274Z,1018.08
2018-08-16T05:29:59.097Z,1018.06
2018-08-16T05:30:58.796Z,1018.05
2018-08-16T05:31:59.553Z,1018.03
2018-08-16T05:32:58.419Z,1018.04
2018-08-16T05:33:57.892Z,1018.03
2018-08-16T05:34:58.632Z,1018.00
2018-08-16T05:36:19.897Z,1018.05
2018-08-16T05:37:20.446Z,1018.05
2018-08-16T05:38:20.625Z,1018.03
2018-08-16T05:39:20.457Z,1018.03
2018-08-16T05:40:20.272Z,1017.98
2018-08-16T05:41:20.228Z,1017.99
2018-08-16T05:42:20.183Z,1018.01
2018-08-16T05:43:19.871Z,1017.98
2018-08-16T05:44:20.448Z,1017.96
2018-08-16T05:45:20.804Z,1017.94
2018-08-16T05:46:20.379Z,1017.96
2018-08-16T05:47:20.024Z,1017.93
2018-08-16T05:48:20.717Z,1017.93
2018-08-16T05:49:42.033Z,1017.95
2018-08-16T05:51:04.633Z,1017.92
2018-08-16T05:51:47.078Z,1017.92
2018-08-16T05:53:31.218Z,1017.91
2018-08-16T05:54:32.388Z,1017.91
2018-08-16T05:55:32.038Z,1017.84
2018-08-16T05:56:31.622Z,1017.87
2018-08-16T05:57:31.299Z,1017.87
2018-08-16T05:58:31.102Z,1017.85
2018-08-16T05:59:31.804Z,1017.85
2018-08-16T06:00:31.442Z,1017.84
2018-08-16T06:01:31.118Z,1017.85
2018-08-16T06:02:31.860Z,1017.86
2018-08-16T06:03:31.416Z,1017.87
2018-08-16T06:04:31.199Z,1017.85
2018-08-16T06:05:31.834Z,1017.85
2018-08-16T06:06:31.451Z,1017.85
2018-08-16T06:07:32.067Z,1017.85
2018-08-16T06:08:32.364Z,1017.84
2018-08-16T06:09:31.952Z,1017.86
2018-08-16T06:10:31.421Z,1017.85
2018-08-16T06:11:31.285Z,1017.82
2018-08-16T06:12:31.938Z,1017.85
2018-08-16T06:13:31.742Z,1017.84
2018-08-16T06:14:31.521Z,1017.83
2018-08-16T06:15:31.581Z,1017.86
2018-08-16T06:16:31.378Z,1017.83
2018-08-16T06:17:52.572Z,1017.85
2018-08-16T06:18:53.278Z,1017.82
2018-08-16T06:20:14.868Z,1017.85
2018-08-16T06:21:15.564Z,1017.82
2018-08-16T06:22:15.296Z,1017.79
2018-08-16T06:23:14.833Z,1017.76
2018-08-16T06:24:36.767Z,1017.78
2018-08-16T06:25:37.447Z,1017.76
2018-08-16T06:26:37.245Z,1017.78
2018-08-16T06:27:58.475Z,1017.80
2018-08-16T06:28:59.323Z,1017.79
2018-08-16T06:29:58.966Z,1017.80
2018-08-16T06:30:58.829Z,1017.80
2018-08-16T06:31:58.462Z,1017.77
2018-08-16T06:32:59.519Z,1017.82
2018-08-16T06:33:59.249Z,1017.81
2018-08-16T06:34:58.891Z,1017.80
2018-08-16T06:35:58.925Z,1017.79
2018-08-16T06:36:58.453Z,1017.80
2018-08-16T06:37:59.350Z,1017.81
2018-08-16T06:38:59.304Z,1017.79
2018-08-16T06:39:59.165Z,1017.80
2018-08-16T06:40:59.772Z,1017.76
2018-08-16T06:41:58.847Z,1017.77
2018-08-16T06:43:20.365Z,1017.80
2018-08-16T06:44:41.880Z,1017.83
2018-08-16T06:45:42.738Z,1017.85
2018-08-16T06:47:03.906Z,1017.84
2018-08-16T06:48:05.098Z,1017.82
2018-08-16T06:49:03.921Z,1017.81
2018-08-16T06:50:29.324Z,1017.79
2018-08-16T06:51:29.572Z,1017.77
2018-08-16T06:52:29.605Z,1017.76
2018-08-16T06:53:29.625Z,1017.71
2018-08-16T06:54:29.385Z,1017.73
2018-08-16T06:55:29.024Z,1017.68
2018-08-16T06:56:30.472Z,1017.71
2018-08-16T06:57:29.464Z,1017.73
2018-08-16T06:58:31.052Z,1017.70
2018-08-16T06:59:31.817Z,1017.69
2018-08-16T07:00:29.694Z,1017.69
2018-08-16T07:01:29.953Z,1017.73
2018-08-16T07:02:29.672Z,1017.70
2018-08-16T07:03:29.337Z,1017.71
2018-08-16T07:04:29.031Z,1017.74
2018-08-16T07:06:05.468Z,1017.72
2018-08-16T07:07:05.404Z,1017.67
2018-08-16T07:08:05.453Z,1017.66
2018-08-16T07:09:05.350Z,1017.65
2018-08-16T07:10:06.297Z,1017.65
2018-08-16T07:11:06.326Z,1017.64
2018-08-16T07:12:05.431Z,1017.64
2018-08-16T07:13:05.653Z,1017.68
2018-08-16T07:14:49.016Z,1017.68
2018-08-16T07:15:49.711Z,1017.65
2018-08-16T07:16:49.495Z,1017.68
2018-08-16T07:17:53.470Z,1017.67
2018-08-16T07:18:49.051Z,1017.64
2018-08-16T07:19:50.195Z,1017.63
2018-08-16T07:20:49.159Z,1017.57
2018-08-16T07:21:50.459Z,1017.62
2018-08-16T07:22:51.087Z,1017.59
2018-08-16T07:23:49.872Z,1017.58
2018-08-16T07:24:49.570Z,1017.64
2018-08-16T07:25:49.380Z,1017.59
2018-08-16T07:26:49.122Z,1017.59
2018-08-16T07:27:50.285Z,1017.62
2018-08-16T07:28:50.443Z,1017.65
2018-08-16T07:29:49.408Z,1017.60
2018-08-16T07:30:49.199Z,1017.63
2018-08-16T07:31:50.278Z,1017.63
2018-08-16T07:32:49.549Z,1017.60
2018-08-16T07:33:49.569Z,1017.57
2018-08-16T07:34:49.088Z,1017.61
2018-08-16T07:35:49.776Z,1017.57
2018-08-16T07:36:49.756Z,1017.57
2018-08-16T07:37:49.513Z,1017.55
2018-08-16T07:40:16.397Z,1017.58
2018-08-16T07:41:17.082Z,1017.58
2018-08-16T07:42:16.749Z,1017.56
2018-08-16T07:43:38.751Z,1017.55
2018-08-16T07:44:38.723Z,1017.54
2018-08-16T07:45:38.919Z,1017.53
2018-08-16T07:46:38.462Z,1017.55
2018-08-16T07:47:39.452Z,1017.55
2018-08-16T07:48:39.843Z,1017.54
2018-08-16T07:49:38.941Z,1017.55
2018-08-16T07:50:39.275Z,1017.52
2018-08-16T07:51:39.580Z,1017.51
2018-08-16T07:53:00.161Z,1017.51
2018-08-16T07:54:00.873Z,1017.48
2018-08-16T07:55:00.484Z,1017.48
2018-08-16T07:56:01.295Z,1017.50
2018-08-16T07:57:01.488Z,1017.47
2018-08-16T07:58:07.176Z,1017.46
2018-08-16T07:59:01.128Z,1017.46
2018-08-16T08:00:11.688Z,1017.47
2018-08-16T08:01:23.187Z,1017.50
2018-08-16T08:02:22.801Z,1017.46
2018-08-16T08:03:44.071Z,1017.43
2018-08-16T08:04:44.845Z,1017.43
2018-08-16T08:05:44.976Z,1017.40
2018-08-16T08:06:44.791Z,1017.43
2018-08-16T08:07:44.680Z,1017.42
2018-08-16T08:08:44.999Z,1017.39
2018-08-16T08:09:45.197Z,1017.44
2018-08-16T08:10:44.372Z,1017.40
2018-08-16T08:11:44.542Z,1017.37
2018-08-16T08:12:44.520Z,1017.38
2018-08-16T08:13:44.512Z,1017.37
2018-08-16T08:14:44.214Z,1017.35
2018-08-16T08:15:45.247Z,1017.38
2018-08-16T08:16:44.395Z,1017.36
2018-08-16T08:17:44.021Z,1017.32
2018-08-16T08:18:44.596Z,1017.35
2018-08-16T08:19:44.558Z,1017.30
2018-08-16T08:20:44.460Z,1017.27
2018-08-16T08:21:44.361Z,1017.27
2018-08-16T08:23:06.097Z,1017.31
2018-08-16T08:24:05.870Z,1017.25
2018-08-16T08:25:05.781Z,1017.32
2018-08-16T08:26:28.560Z,1017.24
2018-08-16T08:27:29.728Z,1017.26
2018-08-16T08:28:28.619Z,1017.25
2018-08-16T08:29:30.162Z,1017.23
2018-08-16T08:30:29.020Z,1017.22
2018-08-16T08:31:28.840Z,1017.23
2018-08-16T08:32:28.654Z,1017.21
2018-08-16T08:33:29.734Z,1017.21
2018-08-16T08:34:28.499Z,1017.18
2018-08-16T08:35:29.197Z,1017.22
2018-08-16T08:36:29.255Z,1017.17
2018-08-16T08:37:28.943Z,1017.18
2018-08-16T08:38:28.858Z,1017.12
2018-08-16T08:39:28.657Z,1017.12
2018-08-16T08:40:29.944Z,1017.14
2018-08-16T08:41:29.125Z,1017.13
2018-08-16T08:42:50.377Z,1017.10
2018-08-16T08:43:51.143Z,1017.08
2018-08-16T08:44:50.952Z,1017.09
2018-08-16T08:46:55.688Z,1017.11
2018-08-16T08:47:56.758Z,1017.11
2018-08-16T08:48:56.791Z,1017.09
2018-08-16T08:49:56.642Z,1017.03
2018-08-16T08:51:39.448Z,1017.02
2018-08-16T08:52:40.202Z,1016.95
2018-08-16T08:53:40.369Z,1017.01
2018-08-16T08:54:40.565Z,1017.03
2018-08-16T08:55:39.875Z,1017.05
2018-08-16T08:56:39.597Z,1017.02
2018-08-16T08:57:42.827Z,1016.99
2018-08-16T08:59:50.975Z,1017.00
2018-08-16T09:00:49.048Z,1016.97
2018-08-16T09:01:49.064Z,1016.89
2018-08-16T09:02:49.208Z,1016.93
2018-08-16T09:03:48.940Z,1016.95
2018-08-16T09:04:50.736Z,1016.90
2018-08-16T09:05:49.636Z,1016.87
2018-08-16T09:07:10.383Z,1016.91
2018-08-16T09:50:23.143Z,1016.50
2018-08-16T09:51:23.047Z,1016.51
2018-08-16T09:52:22.939Z,1016.53
2018-08-16T09:53:22.700Z,1016.52
2018-08-16T09:54:22.557Z,1016.53
2018-08-16T09:55:23.751Z,1016.44
2018-08-16T09:56:22.484Z,1016.47
2018-08-16T09:57:44.947Z,1016.50
2018-08-16T09:58:45.457Z,1016.47
2018-08-16T09:59:45.284Z,1016.49
2018-08-16T10:00:58.789Z,1016.48
2018-08-16T10:01:45.589Z,1016.47
2018-08-16T10:02:45.507Z,1016.46
2018-08-16T10:03:45.127Z,1016.44
2018-08-16T10:04:44.894Z,1016.36
2018-08-16T10:05:45.693Z,1016.41
2018-08-16T10:06:45.248Z,1016.44
2018-08-16T10:07:45.066Z,1016.41
2018-08-16T10:08:45.350Z,1016.39
2018-08-16T10:09:46.424Z,1016.38
2018-08-16T10:10:45.256Z,1016.36
2018-08-16T10:11:45.418Z,1016.38
2018-08-16T10:12:45.145Z,1016.36
2018-08-16T10:13:44.902Z,1016.35
2018-08-16T10:14:45.623Z,1016.34
2018-08-16T10:15:45.256Z,1016.42
2018-08-16T10:16:45.175Z,1016.38
2018-08-16T10:17:45.036Z,1016.35
2018-08-16T10:18:44.755Z,1016.30
2018-08-16T10:19:45.485Z,1016.28
2018-08-16T10:20:45.356Z,1016.26
2018-08-16T10:21:45.396Z,1016.29
2018-08-16T10:22:45.082Z,1016.18
2018-08-16T10:23:44.992Z,1016.21
2018-08-16T10:24:45.652Z,1016.24
2018-08-16T10:25:45.407Z,1016.22
2018-08-16T10:26:45.232Z,1016.22
2018-08-16T10:27:45.373Z,1016.25
2018-08-16T10:28:45.095Z,1016.24
2018-08-16T10:29:44.811Z,1016.21
2018-08-16T10:30:45.621Z,1016.24
2018-08-16T10:32:06.934Z,1016.25
2018-08-16T10:33:07.604Z,1016.15
2018-08-16T10:34:07.340Z,1016.16
2018-08-16T10:35:28.768Z,1016.15
2018-08-16T10:36:28.944Z,1016.14
2018-08-16T10:37:28.964Z,1016.16
2018-08-16T10:38:29.070Z,1016.11
2018-08-16T10:39:28.713Z,1016.14
2018-08-16T10:40:28.630Z,1016.17
2018-08-16T10:41:29.783Z,1016.16
2018-08-16T10:42:28.510Z,1016.18
2018-08-16T10:43:29.263Z,1016.14
2018-08-16T10:44:28.912Z,1016.08
2018-08-16T10:45:28.477Z,1016.07
2018-08-16T10:46:29.845Z,1016.02
2018-08-16T10:47:28.863Z,1016.05
2018-08-16T10:48:28.668Z,1016.08
2018-08-16T10:49:28.394Z,1016.08
2018-08-16T10:50:29.306Z,1016.07
2018-08-16T10:51:29.314Z,1016.10
2018-08-16T10:52:29.014Z,1016.04
2018-08-16T10:53:29.172Z,1016.04
2018-08-16T10:54:50.693Z,1016.00
2018-08-16T10:55:53.451Z,1015.99
2018-08-16T10:57:14.307Z,1016.07
2018-08-16T10:58:14.292Z,1016.10
2018-08-16T10:59:14.427Z,1016.04
2018-08-16T11:00:13.611Z,1016.11
2018-08-16T11:01:16.510Z,1016.08
2018-08-16T11:02:13.338Z,1016.02
2018-08-16T11:03:13.211Z,1016.02
2018-08-16T11:04:13.109Z,1016.04
2018-08-16T11:05:13.845Z,1016.02
2018-08-16T11:06:14.669Z,1016.01
2018-08-16T11:07:13.849Z,1016.03
2018-08-16T11:08:13.624Z,1016.06
2018-08-16T11:09:13.289Z,1016.10
2018-08-16T11:10:14.080Z,1016.09
2018-08-16T11:11:14.333Z,1016.07
2018-08-16T11:12:14.194Z,1016.09
2018-08-16T11:13:14.579Z,1016.00
2018-08-16T11:14:13.571Z,1016.03
2018-08-16T11:15:13.415Z,1016.06
2018-08-16T11:16:13.172Z,1015.97
2018-08-16T11:17:13.762Z,1015.98
2018-08-16T11:18:14.035Z,1015.97
2018-08-16T11:19:13.652Z,1015.96
2018-08-16T11:20:13.416Z,1015.93
2018-08-16T11:21:13.116Z,1015.93
2018-08-16T11:22:13.766Z,1015.91
2018-08-16T11:23:56.482Z,1015.84
2018-08-16T11:24:57.624Z,1015.88
2018-08-16T11:26:19.272Z,1015.90
2018-08-16T11:27:19.456Z,1015.91
2018-08-16T11:28:19.278Z,1015.84
2018-08-16T11:29:40.434Z,1015.88
2018-08-16T11:30:41.583Z,1015.87
2018-08-16T11:31:41.194Z,1015.88
2018-08-16T11:32:40.753Z,1015.85
2018-08-16T11:33:40.603Z,1015.80
2018-08-16T11:34:41.385Z,1015.79
2018-08-16T11:35:41.747Z,1015.77
2018-08-16T11:36:41.301Z,1015.77
2018-08-16T11:37:41.416Z,1015.76
2018-08-16T11:38:41.158Z,1015.79
2018-08-16T11:39:40.845Z,1015.79
2018-08-16T11:40:40.811Z,1015.74
2018-08-16T11:41:41.000Z,1015.79
2018-08-16T11:42:40.809Z,1015.74
2018-08-16T11:43:40.840Z,1015.85
2018-08-16T11:44:40.622Z,1015.82
2018-08-16T11:45:41.224Z,1015.80
2018-08-16T11:46:40.996Z,1015.79
2018-08-16T11:47:40.967Z,1015.75
2018-08-16T11:48:40.682Z,1015.75
2018-08-16T11:49:41.550Z,1015.78
2018-08-16T11:50:41.597Z,1015.84
2018-08-16T11:51:42.074Z,1015.79
2018-08-16T11:52:40.843Z,1015.74
2018-08-16T11:53:40.959Z,1015.72
2018-08-16T11:54:40.917Z,1015.66
2018-08-16T11:55:40.854Z,1015.63
2018-08-16T11:56:41.594Z,1015.63
2018-08-16T11:58:04.117Z,1015.60
2018-08-16T11:59:05.333Z,1015.57
2018-08-16T12:00:04.989Z,1015.60
2018-08-16T12:01:28.533Z,1015.62
2018-08-16T12:02:50.495Z,1015.65
2018-08-16T12:04:25.360Z,1015.62
2018-08-16T12:05:20.036Z,1015.62
2018-08-16T12:06:21.074Z,1015.62
2018-08-16T12:07:20.207Z,1015.59
2018-08-16T12:08:20.474Z,1015.58
2018-08-16T12:09:21.652Z,1015.63
2018-08-16T12:10:20.273Z,1015.65
2018-08-16T12:11:40.643Z,1015.65
2018-08-16T12:12:41.821Z,1015.62
2018-08-16T12:13:42.980Z,1015.58
2018-08-16T12:15:04.955Z,1015.59
2018-08-16T12:16:04.969Z,1015.58
2018-08-16T12:17:05.143Z,1015.58
2018-08-16T12:18:05.806Z,1015.49
2018-08-16T12:19:04.958Z,1015.51
2018-08-16T12:20:27.628Z,1015.44
2018-08-16T12:21:26.977Z,1015.44
2018-08-16T12:22:26.970Z,1015.52
2018-08-16T12:23:26.901Z,1015.48
2018-08-16T12:24:30.432Z,1015.54
2018-08-16T12:25:27.072Z,1015.54
2018-08-16T12:26:27.136Z,1015.50
2018-08-16T12:27:27.323Z,1015.50
2018-08-16T12:28:27.257Z,1015.52
2018-08-16T12:29:27.248Z,1015.54
2018-08-16T12:30:27.776Z,1015.52
2018-08-16T12:31:27.461Z,1015.49
2018-08-16T12:32:27.881Z,1015.50
2018-08-16T12:33:26.915Z,1015.43
2018-08-16T12:34:27.204Z,1015.49
2018-08-16T12:36:12.872Z,1015.46
2018-08-16T12:37:34.787Z,1015.49
2018-08-16T12:38:35.005Z,1015.46
2018-08-16T12:39:57.022Z,1015.49
2018-08-16T12:40:57.554Z,1015.46
2018-08-16T12:41:57.549Z,1015.49
2018-08-16T12:42:57.879Z,1015.47
2018-08-16T12:43:57.681Z,1015.43
2018-08-16T12:44:58.304Z,1015.45
2018-08-16T12:45:58.806Z,1015.45
2018-08-16T12:46:57.687Z,1015.40
2018-08-16T12:47:58.763Z,1015.39
2018-08-16T12:48:57.356Z,1015.36
2018-08-16T12:49:56.934Z,1015.36
2018-08-16T12:50:58.615Z,1015.34
2018-08-16T12:51:57.921Z,1015.32
2018-08-16T12:52:57.823Z,1015.34
2018-08-16T12:53:57.584Z,1015.32
2018-08-16T12:54:57.719Z,1015.29
2018-08-16T12:55:58.587Z,1015.25
2018-08-16T12:56:57.420Z,1015.25
2018-08-16T12:58:05.138Z,1015.22
2018-08-16T12:58:57.071Z,1015.20
2018-08-16T13:00:01.837Z,1015.19
2018-08-16T13:01:23.435Z,1015.18
2018-08-16T13:02:21.192Z,1015.05
2018-08-16T13:03:21.891Z,1015.17
2018-08-16T13:05:05.675Z,1015.22
2018-08-16T13:06:05.407Z,1015.21
2018-08-16T13:07:06.063Z,1015.19
2018-08-16T13:08:06.071Z,1015.16
2018-08-16T13:09:06.152Z,1015.11
2018-08-16T13:10:05.931Z,1015.15
2018-08-16T13:11:05.977Z,1015.16
2018-08-16T13:12:06.166Z,1015.17
2018-08-16T13:13:06.355Z,1015.15
2018-08-16T13:14:06.161Z,1015.16
2018-08-16T13:15:06.124Z,1015.14
2018-08-16T13:16:06.042Z,1015.14
2018-08-16T13:17:06.084Z,1015.14
2018-08-16T13:18:06.058Z,1015.10
2018-08-16T13:19:05.890Z,1015.13
2018-08-16T13:20:06.163Z,1015.12
2018-08-16T13:21:06.315Z,1015.13
2018-08-16T13:22:05.288Z,1015.10
2018-08-16T13:23:10.037Z,1015.14
2018-08-16T13:24:09.508Z,1015.11
2018-08-16T13:25:05.725Z,1015.11
2018-08-16T13:26:05.870Z,1015.11
2018-08-16T13:27:06.362Z,1015.03
2018-08-16T13:28:05.245Z,1015.06